To NAV CANADA Home Page Login to a new session Search on AWWS site Disclaimer Vers la page française équivalente Tips FAQ What's new on the site To the Forecasts and Observations / NOTAM section To "File a Flight Plan" website Publications and other links Update of the User's profile FIC Telephone Numbers My Weather Data Folder Route Weather Data Regional Weather Data Local Weather Data To the Forecasts and Observations / NOTAM section
Request Generated 07/10/2020 at 11:39:00 UTC . Weather information available at that time is displayed.


Save this request

METAR/TAF

ESTEVAN REGIONAL/SK    (show WxCam)

METAR CYEN 101100Z AUTO 00000KT 9SM CLR 10/09 A2999 RMK SLP166=
METAR CYEN 101000Z AUTO 22006KT 9SM CLR 10/10 A2999 RMK SLP167=
METAR CYEN 100900Z AUTO 21004KT 9SM CLR 11/10 A3000 RMK SLP167=

TAF CYEN 101138Z 1012/1024 VRB03KT P6SM SKC
BECMG 1014/1016 12008KT
BECMG 1019/1021 10012KT
FM102300 10012KT P6SM VCSH BKN100
RMK FCST BASED ON AUTO OBS. NXT FCST BY 101800Z=

MOOSE JAW/AIR VICE MARSHAL C.M. MCEWEN/SK    

METAR CYMJ 101100Z 19009KT 15SM FEW090 FEW300 12/10 A2996 RMK AC1CI2 FST OBS SLP150=

*** REMARK        : Forecast period has ended; this was the last TAF issued
*** REMARQUE : La période de prévision est échue; ceci était le dernier TAF qui a été émis
TAF AMD CYMJ 092141Z 0918/1006 FCST CNCLD DUE END OF FLYING PROGRAM
RMK NXT FCST WILL BE ISSUED AT 101215Z=

REGINA INTL/SK    

METAR CYQR 101100Z 12006KT 15SM FEW260 09/09 A2998 RMK CI1 CI TR SLP162=
METAR CYQR 101000Z 14005KT 15SM FEW260 10/09 A2997 RMK CI1 CI TR SLP158=
METAR CYQR 100900Z 14002KT 15SM SKC 12/10 A2996 RMK SLP155 DENSITY ALT 2000FT=

TAF CYQR 101138Z 1012/1112 12006KT P6SM SKC
FM101700 12010KT P6SM SCT100 BKN200
FM102000 34012G22KT P6SM FEW040 BKN100 TEMPO 1020/1104 5SM -SHRA
BR OVC040 PROB30 1021/1103 VRB20G35KT 2SM TSRA OVC040CB
FM110500 24008KT P6SM SCT400 TEMPO 1105/1112 BKN040
BECMG 1107/1109 30010KT
RMK NXT FCST BY 101800Z=

SASKATOON/JOHN G. DIEFENBAKER INTL/SK    

METAR CYXE 101100Z 16006KT 15SM FEW060 SCT300 11/10 A2991 RMK SC1CI4 SLP138=
METAR CYXE 101000Z 19003KT 15SM FEW300 11/11 A2992 RMK CI4 SLP139 DENSITY ALT 1700FT=
METAR CYXE 100900Z 16007KT 15SM SKC 12/10 A2992 RMK SLP139 DENSITY ALT 1700FT=

TAF CYXE 101138Z 1012/1112 16006KT P6SM SCT240
FM101400 15010KT P6SM SCT080 TEMPO 1014/1020 BKN080
BECMG 1017/1019 18015G25KT
FM102000 20015G25KT P6SM BKN080 TEMPO 1020/1104 P6SM -SHRA BKN040
PROB30 1020/1103 VRB20G30KT 3SM TSRA BR OVC040CB
FM110400 20008KT P6SM SCT030
BECMG 1104/1106 27008KT
FM110800 27008KT P6SM SKC
RMK NXT FCST BY 101800Z=

YORKTON MUNICIPALITY/SK    (show WxCam)

METAR CYQV 101100Z AUTO 26006KT 9SM CLR 11/11 A2996 RMK SLP152=
METAR CYQV 101000Z AUTO 25006KT 9SM CLR 12/11 A2994 RMK SLP146=
METAR CYQV 100900Z AUTO 25006KT 9SM FEW140 12/12 A2993 RMK SLP143=

TAF CYQV 101138Z 1012/1024 26006KT P6SM SKC
BECMG 1015/1017 35006KT
FM102100 VRB03KT P6SM BKN150
FM102300 VRB03KT P6SM VCSH BKN060
RMK FCST BASED ON AUTO OBS. NXT FCST BY 101800Z=

BRANDON MUNICIPALITY/MB    

METAR CYBR 101100Z 25008KT 15SM FEW060 13/12 A2996 RMK SC2 SLP152 DENSITY ALT 1400FT=
METAR CYBR 101000Z 29004KT 15SM FEW060 13/13 A2994 RMK SC2 SLP147 DENSITY ALT 1500FT=
METAR CYBR 100900Z 29006KT 15SM FEW060 14/14 A2993 RMK SC2 SLP141 DENSITY ALT 1600FT=

TAF CYBR 101138Z 1012/1024 25008KT P6SM FEW060
BECMG 1012/1014 30008KT
BECMG 1022/1024 36008KT
RMK NXT FCST BY 101800Z=

PORTAGE LA PRAIRIE/SOUTHPORT/MB    

METAR CYPG 101100Z 24005KT 15SM BKN055 16/14 A2993 RMK SC6 FST OBS SLP135=

*** REMARK        : Forecast period has ended; this was the last TAF issued
*** REMARQUE : La période de prévision est échue; ceci était le dernier TAF qui a été émis
TAF AMD CYPG 092206Z 0918/1006 FCST CNCLD DUE END OF FLYING PROGRAM
RMK NXT FCST WILL BE ISSUED AT 101215Z=

WINNIPEG/JAMES ARMSTRONG RICHARDSON INTL/MB    

METAR CYWG 101100Z 27005KT 15SM FEW027 13/12 A2991 RMK SC1 SC TR SLP131 DENSITY ALT 800FT=
METAR CYWG 101000Z 28005KT 15SM FEW150 14/13 A2989 RMK AC1 SLP126 DENSITY ALT 900FT=
METAR CYWG 100900Z 26006KT 15SM SKC 15/14 A2987 RMK SLP119 DENSITY ALT 1100FT=

TAF CYWG 101138Z 1012/1112 27005KT P6SM SKC
BECMG 1012/1014 30012KT
FM101400 30012KT P6SM SCT060 TEMPO 1014/1022 BKN060
FM102200 32010KT P6SM SKC
FM110300 32006KT P6SM SCT040
BECMG 1108/1110 VRB03KT
RMK NXT FCST BY 101800Z=


Your time UTC time
Weather data provided by Environment Canada and NAV CANADA